sensor_id;sensor_type;location;lat;lon;timestamp;P1;durP1;ratioP1;P2;durP2;ratioP2
64061;SDS011;50308;47.438;-1.528;2024-03-02T00:02:43;4.18;;;1.30;;
64061;SDS011;50308;47.438;-1.528;2024-03-02T00:05:13;2.83;;;1.38;;
64061;SDS011;50308;47.438;-1.528;2024-03-02T00:07:46;5.63;;;1.33;;
64061;SDS011;50308;47.438;-1.528;2024-03-02T00:10:19;3.60;;;1.30;;
64061;SDS011;50308;47.438;-1.528;2024-03-02T00:12:50;7.38;;;1.40;;
64061;SDS011;50308;47.438;-1.528;2024-03-02T00:18:12;4.55;;;1.33;;
64061;SDS011;50308;47.438;-1.528;2024-03-02T00:20:41;4.13;;;1.38;;
64061;SDS011;50308;47.438;-1.528;2024-03-02T00:23:08;4.88;;;1.08;;
64061;SDS011;50308;47.438;-1.528;2024-03-02T00:25:46;4.32;;;1.30;;
64061;SDS011;50308;47.438;-1.528;2024-03-02T00:28:17;4.32;;;0.82;;
64061;SDS011;50308;47.438;-1.528;2024-03-02T00:31:09;2.90;;;0.70;;
64061;SDS011;50308;47.438;-1.528;2024-03-02T00:33:46;3.72;;;0.88;;
64061;SDS011;50308;47.438;-1.528;2024-03-02T00:36:13;3.25;;;0.70;;
64061;SDS011;50308;47.438;-1.528;2024-03-02T00:38:47;2.65;;;0.85;;
64061;SDS011;50308;47.438;-1.528;2024-03-02T00:41:30;2.92;;;1.08;;
64061;SDS011;50308;47.438;-1.528;2024-03-02T00:46:23;1.15;;;0.93;;
64061;SDS011;50308;47.438;-1.528;2024-03-02T00:48:53;1.42;;;0.50;;
64061;SDS011;50308;47.438;-1.528;2024-03-02T00:51:19;2.10;;;0.60;;
64061;SDS011;50308;47.438;-1.528;2024-03-02T00:53:46;2.80;;;1.00;;
64061;SDS011;50308;47.438;-1.528;2024-03-02T00:56:12;1.58;;;0.73;;
64061;SDS011;50308;47.438;-1.528;2024-03-02T00:58:38;1.02;;;0.50;;
64061;SDS011;50308;47.438;-1.528;2024-03-02T01:01:04;1.08;;;0.50;;
64061;SDS011;50308;47.438;-1.528;2024-03-02T01:03:32;1.40;;;0.57;;
64061;SDS011;50308;47.438;-1.528;2024-03-02T01:05:58;1.08;;;0.50;;
64061;SDS011;50308;47.438;-1.528;2024-03-02T01:08:24;1.85;;;0.80;;
64061;SDS011;50308;47.438;-1.528;2024-03-02T01:10:51;1.15;;;0.50;;
64061;SDS011;50308;47.438;-1.528;2024-03-02T01:13:16;2.38;;;0.70;;
64061;SDS011;50308;47.438;-1.528;2024-03-02T01:15:42;1.45;;;0.50;;
64061;SDS011;50308;47.438;-1.528;2024-03-02T01:18:08;2.22;;;0.63;;
64061;SDS011;50308;47.438;-1.528;2024-03-02T01:20:34;2.88;;;0.60;;
64061;SDS011;50308;47.438;-1.528;2024-03-02T01:23:00;0.73;;;0.60;;
64061;SDS011;50308;47.438;-1.528;2024-03-02T01:25:25;0.60;;;0.60;;
64061;SDS011;50308;47.438;-1.528;2024-03-02T01:27:51;2.20;;;0.80;;
64061;SDS011;50308;47.438;-1.528;2024-03-02T01:30:17;3.30;;;0.75;;
64061;SDS011;50308;47.438;-1.528;2024-03-02T01:32:42;1.92;;;0.50;;
64061;SDS011;50308;47.438;-1.528;2024-03-02T01:35:08;1.08;;;0.57;;
64061;SDS011;50308;47.438;-1.528;2024-03-02T01:37:34;1.00;;;0.65;;
64061;SDS011;50308;47.438;-1.528;2024-03-02T01:39:59;3.22;;;0.77;;
64061;SDS011;50308;47.438;-1.528;2024-03-02T01:42:25;1.95;;;0.60;;
64061;SDS011;50308;47.438;-1.528;2024-03-02T01:44:51;2.08;;;0.70;;
64061;SDS011;50308;47.438;-1.528;2024-03-02T01:47:16;1.67;;;0.60;;
64061;SDS011;50308;47.438;-1.528;2024-03-02T01:49:42;2.55;;;0.75;;
64061;SDS011;50308;47.438;-1.528;2024-03-02T01:52:08;2.88;;;1.42;;
64061;SDS011;50308;47.438;-1.528;2024-03-02T01:54:34;2.78;;;0.88;;
64061;SDS011;50308;47.438;-1.528;2024-03-02T01:57:00;2.67;;;0.55;;
64061;SDS011;50308;47.438;-1.528;2024-03-02T01:59:26;4.25;;;0.77;;
64061;SDS011;50308;47.438;-1.528;2024-03-02T02:01:52;4.10;;;0.80;;
64061;SDS011;50308;47.438;-1.528;2024-03-02T02:04:18;1.90;;;0.80;;
64061;SDS011;50308;47.438;-1.528;2024-03-02T02:06:46;3.72;;;0.70;;
64061;SDS011;50308;47.438;-1.528;2024-03-02T02:09:12;4.03;;;1.23;;
64061;SDS011;50308;47.438;-1.528;2024-03-02T02:11:38;2.47;;;0.82;;
64061;SDS011;50308;47.438;-1.528;2024-03-02T02:14:03;2.65;;;0.50;;
64061;SDS011;50308;47.438;-1.528;2024-03-02T02:16:31;2.40;;;0.90;;
64061;SDS011;50308;47.438;-1.528;2024-03-02T02:18:56;2.85;;;0.70;;
64061;SDS011;50308;47.438;-1.528;2024-03-02T02:21:22;3.13;;;0.98;;
64061;SDS011;50308;47.438;-1.528;2024-03-02T02:23:48;2.92;;;0.90;;
64061;SDS011;50308;47.438;-1.528;2024-03-02T02:26:15;4.03;;;0.80;;
64061;SDS011;50308;47.438;-1.528;2024-03-02T02:28:41;1.58;;;0.70;;
64061;SDS011;50308;47.438;-1.528;2024-03-02T02:33:39;3.75;;;0.88;;
64061;SDS011;50308;47.438;-1.528;2024-03-02T02:36:05;5.28;;;0.98;;
64061;SDS011;50308;47.438;-1.528;2024-03-02T02:38:31;2.10;;;0.73;;
64061;SDS011;50308;47.438;-1.528;2024-03-02T02:41:00;4.25;;;0.90;;
64061;SDS011;50308;47.438;-1.528;2024-03-02T02:43:25;3.53;;;0.90;;
64061;SDS011;50308;47.438;-1.528;2024-03-02T02:45:51;3.28;;;0.80;;
64061;SDS011;50308;47.438;-1.528;2024-03-02T02:48:17;3.05;;;0.90;;
64061;SDS011;50308;47.438;-1.528;2024-03-02T02:50:42;4.65;;;0.95;;
64061;SDS011;50308;47.438;-1.528;2024-03-02T02:53:08;2.25;;;0.73;;
64061;SDS011;50308;47.438;-1.528;2024-03-02T02:55:35;3.30;;;1.17;;
64061;SDS011;50308;47.438;-1.528;2024-03-02T02:58:05;4.13;;;0.85;;
64061;SDS011;50308;47.438;-1.528;2024-03-02T03:00:31;4.10;;;0.90;;
64061;SDS011;50308;47.438;-1.528;2024-03-02T03:02:57;2.58;;;1.00;;
64061;SDS011;50308;47.438;-1.528;2024-03-02T03:05:23;4.75;;;1.02;;
64061;SDS011;50308;47.438;-1.528;2024-03-02T03:07:49;3.03;;;0.93;;
64061;SDS011;50308;47.438;-1.528;2024-03-02T03:10:17;2.33;;;0.85;;
64061;SDS011;50308;47.438;-1.528;2024-03-02T03:12:43;3.72;;;1.13;;
64061;SDS011;50308;47.438;-1.528;2024-03-02T03:15:09;2.72;;;0.80;;
64061;SDS011;50308;47.438;-1.528;2024-03-02T03:17:35;4.07;;;1.30;;
64061;SDS011;50308;47.438;-1.528;2024-03-02T03:20:02;3.45;;;1.13;;
64061;SDS011;50308;47.438;-1.528;2024-03-02T03:22:29;4.50;;;1.10;;
64061;SDS011;50308;47.438;-1.528;2024-03-02T03:24:56;2.90;;;0.85;;
64061;SDS011;50308;47.438;-1.528;2024-03-02T03:27:22;4.53;;;1.00;;
64061;SDS011;50308;47.438;-1.528;2024-03-02T03:29:47;3.97;;;1.88;;
64061;SDS011;50308;47.438;-1.528;2024-03-02T03:32:13;5.28;;;1.63;;
64061;SDS011;50308;47.438;-1.528;2024-03-02T03:34:39;2.22;;;0.85;;
64061;SDS011;50308;47.438;-1.528;2024-03-02T03:37:05;4.78;;;1.55;;
64061;SDS011;50308;47.438;-1.528;2024-03-02T03:39:30;4.07;;;1.13;;
64061;SDS011;50308;47.438;-1.528;2024-03-02T03:41:56;3.53;;;0.82;;
64061;SDS011;50308;47.438;-1.528;2024-03-02T03:44:22;2.72;;;1.10;;
64061;SDS011;50308;47.438;-1.528;2024-03-02T03:46:48;2.17;;;1.10;;
64061;SDS011;50308;47.438;-1.528;2024-03-02T03:49:13;3.15;;;0.90;;
64061;SDS011;50308;47.438;-1.528;2024-03-02T03:51:39;2.72;;;1.30;;
64061;SDS011;50308;47.438;-1.528;2024-03-02T03:54:05;3.28;;;1.05;;
64061;SDS011;50308;47.438;-1.528;2024-03-02T03:56:30;2.75;;;1.00;;
64061;SDS011;50308;47.438;-1.528;2024-03-02T03:58:56;2.45;;;0.85;;
64061;SDS011;50308;47.438;-1.528;2024-03-02T04:01:21;3.28;;;0.70;;
64061;SDS011;50308;47.438;-1.528;2024-03-02T04:03:47;5.03;;;1.17;;
64061;SDS011;50308;47.438;-1.528;2024-03-02T04:06:13;2.67;;;1.02;;
64061;SDS011;50308;47.438;-1.528;2024-03-02T04:08:41;3.75;;;0.93;;
64061;SDS011;50308;47.438;-1.528;2024-03-02T04:11:07;2.72;;;0.80;;
64061;SDS011;50308;47.438;-1.528;2024-03-02T04:13:32;1.70;;;0.82;;
64061;SDS011;50308;47.438;-1.528;2024-03-02T04:15:58;3.15;;;0.90;;
64061;SDS011;50308;47.438;-1.528;2024-03-02T04:18:24;2.58;;;1.35;;
64061;SDS011;50308;47.438;-1.528;2024-03-02T04:20:49;3.80;;;0.90;;
64061;SDS011;50308;47.438;-1.528;2024-03-02T04:23:15;3.42;;;0.90;;
64061;SDS011;50308;47.438;-1.528;2024-03-02T04:25:41;2.92;;;0.90;;
64061;SDS011;50308;47.438;-1.528;2024-03-02T04:28:06;1.70;;;0.75;;
64061;SDS011;50308;47.438;-1.528;2024-03-02T04:30:32;3.08;;;0.77;;
64061;SDS011;50308;47.438;-1.528;2024-03-02T04:32:58;1.55;;;0.80;;
64061;SDS011;50308;47.438;-1.528;2024-03-02T04:35:23;1.60;;;0.70;;
64061;SDS011;50308;47.438;-1.528;2024-03-02T04:37:50;3.30;;;0.98;;
64061;SDS011;50308;47.438;-1.528;2024-03-02T04:40:16;2.45;;;1.00;;
64061;SDS011;50308;47.438;-1.528;2024-03-02T04:42:42;4.35;;;1.00;;
64061;SDS011;50308;47.438;-1.528;2024-03-02T04:45:08;2.50;;;0.73;;
64061;SDS011;50308;47.438;-1.528;2024-03-02T04:47:33;2.88;;;0.80;;
64061;SDS011;50308;47.438;-1.528;2024-03-02T04:49:59;2.40;;;0.70;;
64061;SDS011;50308;47.438;-1.528;2024-03-02T04:52:25;2.60;;;0.60;;
64061;SDS011;50308;47.438;-1.528;2024-03-02T04:54:51;3.72;;;0.80;;
64061;SDS011;50308;47.438;-1.528;2024-03-02T04:57:35;2.05;;;0.70;;
64061;SDS011;50308;47.438;-1.528;2024-03-02T05:00:00;2.38;;;0.80;;
64061;SDS011;50308;47.438;-1.528;2024-03-02T05:02:26;1.63;;;0.68;;
64061;SDS011;50308;47.438;-1.528;2024-03-02T05:04:52;2.53;;;0.80;;
64061;SDS011;50308;47.438;-1.528;2024-03-02T05:07:18;2.10;;;0.60;;
64061;SDS011;50308;47.438;-1.528;2024-03-02T05:09:43;2.40;;;1.00;;
64061;SDS011;50308;47.438;-1.528;2024-03-02T05:12:10;3.25;;;0.68;;
64061;SDS011;50308;47.438;-1.528;2024-03-02T05:14:55;2.53;;;0.93;;
64061;SDS011;50308;47.438;-1.528;2024-03-02T05:17:21;2.25;;;0.65;;
64061;SDS011;50308;47.438;-1.528;2024-03-02T05:19:46;3.50;;;0.90;;
64061;SDS011;50308;47.438;-1.528;2024-03-02T05:22:12;1.73;;;0.90;;
64061;SDS011;50308;47.438;-1.528;2024-03-02T05:24:37;2.55;;;0.75;;
64061;SDS011;50308;47.438;-1.528;2024-03-02T05:27:03;3.70;;;0.90;;
64061;SDS011;50308;47.438;-1.528;2024-03-02T05:29:29;3.90;;;0.70;;
64061;SDS011;50308;47.438;-1.528;2024-03-02T05:31:55;4.90;;;1.10;;
64061;SDS011;50308;47.438;-1.528;2024-03-02T05:34:20;1.88;;;0.73;;
64061;SDS011;50308;47.438;-1.528;2024-03-02T05:36:46;2.58;;;0.93;;
64061;SDS011;50308;47.438;-1.528;2024-03-02T05:39:12;3.05;;;1.23;;
64061;SDS011;50308;47.438;-1.528;2024-03-02T05:41:37;2.35;;;0.80;;
64061;SDS011;50308;47.438;-1.528;2024-03-02T05:44:03;3.60;;;0.80;;
64061;SDS011;50308;47.438;-1.528;2024-03-02T05:46:29;3.38;;;0.70;;
64061;SDS011;50308;47.438;-1.528;2024-03-02T05:48:55;2.75;;;0.80;;
64061;SDS011;50308;47.438;-1.528;2024-03-02T05:51:20;2.70;;;0.75;;
64061;SDS011;50308;47.438;-1.528;2024-03-02T05:53:46;2.17;;;0.95;;
64061;SDS011;50308;47.438;-1.528;2024-03-02T05:56:12;1.98;;;0.70;;
64061;SDS011;50308;47.438;-1.528;2024-03-02T05:58:37;1.58;;;0.68;;
64061;SDS011;50308;47.438;-1.528;2024-03-02T06:01:22;2.03;;;1.00;;
64061;SDS011;50308;47.438;-1.528;2024-03-02T06:03:53;1.23;;;0.65;;
64061;SDS011;50308;47.438;-1.528;2024-03-02T06:06:22;1.20;;;0.60;;
64061;SDS011;50308;47.438;-1.528;2024-03-02T06:08:48;3.28;;;0.80;;
64061;SDS011;50308;47.438;-1.528;2024-03-02T06:11:14;2.40;;;0.80;;
64061;SDS011;50308;47.438;-1.528;2024-03-02T06:13:39;2.03;;;0.77;;
64061;SDS011;50308;47.438;-1.528;2024-03-02T06:16:05;3.88;;;0.73;;
64061;SDS011;50308;47.438;-1.528;2024-03-02T06:18:31;1.95;;;0.75;;
64061;SDS011;50308;47.438;-1.528;2024-03-02T06:20:57;2.35;;;0.73;;
64061;SDS011;50308;47.438;-1.528;2024-03-02T06:23:22;4.18;;;0.95;;
64061;SDS011;50308;47.438;-1.528;2024-03-02T06:25:48;3.80;;;1.10;;
64061;SDS011;50308;47.438;-1.528;2024-03-02T06:28:13;2.65;;;0.70;;
64061;SDS011;50308;47.438;-1.528;2024-03-02T06:30:42;2.35;;;0.75;;
64061;SDS011;50308;47.438;-1.528;2024-03-02T06:33:08;1.92;;;1.00;;
64061;SDS011;50308;47.438;-1.528;2024-03-02T06:35:34;1.58;;;0.80;;
64061;SDS011;50308;47.438;-1.528;2024-03-02T06:38:00;3.00;;;1.20;;
64061;SDS011;50308;47.438;-1.528;2024-03-02T06:40:26;3.88;;;1.20;;
64061;SDS011;50308;47.438;-1.528;2024-03-02T06:42:52;6.00;;;1.00;;
64061;SDS011;50308;47.438;-1.528;2024-03-02T06:45:18;4.03;;;1.13;;
64061;SDS011;50308;47.438;-1.528;2024-03-02T06:47:43;2.05;;;0.75;;
64061;SDS011;50308;47.438;-1.528;2024-03-02T06:50:09;2.47;;;1.02;;
64061;SDS011;50308;47.438;-1.528;2024-03-02T06:52:35;2.38;;;1.23;;
64061;SDS011;50308;47.438;-1.528;2024-03-02T06:55:01;1.85;;;0.75;;
64061;SDS011;50308;47.438;-1.528;2024-03-02T06:57:27;1.38;;;0.70;;
64061;SDS011;50308;47.438;-1.528;2024-03-02T06:59:52;1.85;;;0.75;;
64061;SDS011;50308;47.438;-1.528;2024-03-02T07:02:22;2.33;;;0.80;;
64061;SDS011;50308;47.438;-1.528;2024-03-02T07:04:48;2.42;;;0.95;;
64061;SDS011;50308;47.438;-1.528;2024-03-02T07:07:13;2.95;;;0.90;;
64061;SDS011;50308;47.438;-1.528;2024-03-02T07:09:39;2.42;;;1.50;;
64061;SDS011;50308;47.438;-1.528;2024-03-02T07:12:05;2.40;;;1.42;;
64061;SDS011;50308;47.438;-1.528;2024-03-02T07:14:30;3.60;;;1.10;;
64061;SDS011;50308;47.438;-1.528;2024-03-02T07:17:14;2.72;;;1.05;;
64061;SDS011;50308;47.438;-1.528;2024-03-02T07:19:40;5.97;;;1.58;;
64061;SDS011;50308;47.438;-1.528;2024-03-02T07:22:06;4.35;;;1.15;;
64061;SDS011;50308;47.438;-1.528;2024-03-02T07:24:38;3.17;;;1.42;;
64061;SDS011;50308;47.438;-1.528;2024-03-02T07:27:10;2.00;;;1.40;;
64061;SDS011;50308;47.438;-1.528;2024-03-02T07:29:37;4.20;;;1.02;;
64061;SDS011;50308;47.438;-1.528;2024-03-02T07:32:03;2.30;;;1.00;;
64061;SDS011;50308;47.438;-1.528;2024-03-02T07:34:30;2.97;;;1.02;;
64061;SDS011;50308;47.438;-1.528;2024-03-02T07:36:55;4.88;;;1.30;;
64061;SDS011;50308;47.438;-1.528;2024-03-02T07:39:21;3.25;;;1.13;;
64061;SDS011;50308;47.438;-1.528;2024-03-02T07:41:47;2.45;;;1.20;;
64061;SDS011;50308;47.438;-1.528;2024-03-02T07:44:13;5.10;;;1.20;;
64061;SDS011;50308;47.438;-1.528;2024-03-02T07:46:42;3.53;;;1.35;;
64061;SDS011;50308;47.438;-1.528;2024-03-02T07:49:08;3.33;;;1.13;;
64061;SDS011;50308;47.438;-1.528;2024-03-02T07:51:34;3.85;;;1.23;;
64061;SDS011;50308;47.438;-1.528;2024-03-02T07:54:01;2.22;;;1.08;;
64061;SDS011;50308;47.438;-1.528;2024-03-02T07:56:27;5.07;;;1.40;;
64061;SDS011;50308;47.438;-1.528;2024-03-02T07:58:53;2.28;;;1.20;;
64061;SDS011;50308;47.438;-1.528;2024-03-02T08:01:19;5.35;;;1.60;;
64061;SDS011;50308;47.438;-1.528;2024-03-02T08:03:45;3.35;;;1.60;;
64061;SDS011;50308;47.438;-1.528;2024-03-02T08:06:15;3.85;;;2.00;;
64061;SDS011;50308;47.438;-1.528;2024-03-02T08:08:41;3.45;;;1.60;;
64061;SDS011;50308;47.438;-1.528;2024-03-02T08:11:07;3.40;;;1.30;;
64061;SDS011;50308;47.438;-1.528;2024-03-02T08:13:32;2.58;;;1.20;;
64061;SDS011;50308;47.438;-1.528;2024-03-02T08:15:58;2.92;;;1.35;;
64061;SDS011;50308;47.438;-1.528;2024-03-02T08:18:24;3.53;;;1.40;;
64061;SDS011;50308;47.438;-1.528;2024-03-02T08:20:50;2.40;;;1.10;;
64061;SDS011;50308;47.438;-1.528;2024-03-02T08:23:15;2.58;;;1.25;;
64061;SDS011;50308;47.438;-1.528;2024-03-02T08:25:42;5.22;;;1.23;;
64061;SDS011;50308;47.438;-1.528;2024-03-02T08:28:07;3.25;;;1.10;;
64061;SDS011;50308;47.438;-1.528;2024-03-02T08:30:33;2.25;;;0.88;;
64061;SDS011;50308;47.438;-1.528;2024-03-02T08:32:59;2.78;;;1.30;;
64061;SDS011;50308;47.438;-1.528;2024-03-02T08:35:25;3.05;;;1.00;;
64061;SDS011;50308;47.438;-1.528;2024-03-02T08:37:51;3.45;;;1.38;;
64061;SDS011;50308;47.438;-1.528;2024-03-02T08:40:16;1.63;;;0.90;;
64061;SDS011;50308;47.438;-1.528;2024-03-02T08:42:42;3.22;;;1.17;;
64061;SDS011;50308;47.438;-1.528;2024-03-02T08:45:08;4.03;;;1.35;;
64061;SDS011;50308;47.438;-1.528;2024-03-02T08:47:34;4.75;;;1.20;;
64061;SDS011;50308;47.438;-1.528;2024-03-02T08:50:00;5.10;;;1.42;;
64061;SDS011;50308;47.438;-1.528;2024-03-02T08:52:26;5.60;;;1.23;;
64061;SDS011;50308;47.438;-1.528;2024-03-02T08:54:52;3.20;;;1.70;;
64061;SDS011;50308;47.438;-1.528;2024-03-02T08:57:17;3.13;;;1.30;;
64061;SDS011;50308;47.438;-1.528;2024-03-02T08:59:43;5.30;;;1.55;;
64061;SDS011;50308;47.438;-1.528;2024-03-02T09:02:09;3.92;;;1.30;;
64061;SDS011;50308;47.438;-1.528;2024-03-02T09:04:35;4.22;;;1.98;;
64061;SDS011;50308;47.438;-1.528;2024-03-02T09:07:01;3.10;;;1.45;;
64061;SDS011;50308;47.438;-1.528;2024-03-02T09:09:27;3.53;;;1.23;;
64061;SDS011;50308;47.438;-1.528;2024-03-02T09:11:52;2.55;;;1.17;;
64061;SDS011;50308;47.438;-1.528;2024-03-02T09:14:22;2.97;;;1.27;;
64061;SDS011;50308;47.438;-1.528;2024-03-02T09:16:48;1.83;;;1.20;;
64061;SDS011;50308;47.438;-1.528;2024-03-02T09:19:14;3.65;;;1.30;;
64061;SDS011;50308;47.438;-1.528;2024-03-02T09:21:39;4.28;;;1.23;;
64061;SDS011;50308;47.438;-1.528;2024-03-02T09:24:07;4.00;;;1.10;;
64061;SDS011;50308;47.438;-1.528;2024-03-02T09:26:33;3.97;;;1.42;;
64061;SDS011;50308;47.438;-1.528;2024-03-02T09:28:58;3.70;;;1.25;;
64061;SDS011;50308;47.438;-1.528;2024-03-02T09:31:24;3.30;;;1.77;;
64061;SDS011;50308;47.438;-1.528;2024-03-02T09:33:49;5.30;;;2.47;;
64061;SDS011;50308;47.438;-1.528;2024-03-02T09:36:18;6.50;;;1.77;;
64061;SDS011;50308;47.438;-1.528;2024-03-02T09:38:45;6.57;;;1.80;;
64061;SDS011;50308;47.438;-1.528;2024-03-02T09:41:11;4.70;;;2.00;;
64061;SDS011;50308;47.438;-1.528;2024-03-02T09:43:38;3.53;;;1.63;;
64061;SDS011;50308;47.438;-1.528;2024-03-02T09:46:03;4.60;;;1.67;;
64061;SDS011;50308;47.438;-1.528;2024-03-02T09:48:29;4.28;;;1.90;;
64061;SDS011;50308;47.438;-1.528;2024-03-02T09:50:55;4.68;;;1.60;;
64061;SDS011;50308;47.438;-1.528;2024-03-02T09:53:22;5.53;;;1.67;;
64061;SDS011;50308;47.438;-1.528;2024-03-02T09:55:48;3.60;;;1.75;;
64061;SDS011;50308;47.438;-1.528;2024-03-02T09:58:13;4.50;;;1.50;;
64061;SDS011;50308;47.438;-1.528;2024-03-02T10:00:39;9.50;;;6.72;;
64061;SDS011;50308;47.438;-1.528;2024-03-02T10:03:05;3.65;;;2.10;;
64061;SDS011;50308;47.438;-1.528;2024-03-02T10:05:36;5.47;;;2.20;;
64061;SDS011;50308;47.438;-1.528;2024-03-02T10:08:02;5.53;;;2.00;;
64061;SDS011;50308;47.438;-1.528;2024-03-02T10:10:35;3.15;;;1.63;;
64061;SDS011;50308;47.438;-1.528;2024-03-02T10:13:08;2.33;;;1.40;;
64061;SDS011;50308;47.438;-1.528;2024-03-02T10:15:35;2.05;;;1.50;;
64061;SDS011;50308;47.438;-1.528;2024-03-02T10:18:08;2.53;;;1.30;;
64061;SDS011;50308;47.438;-1.528;2024-03-02T10:20:38;2.93;;;1.43;;
64061;SDS011;50308;47.438;-1.528;2024-03-02T10:25:36;3.97;;;1.60;;
64061;SDS011;50308;47.438;-1.528;2024-03-02T10:28:02;5.93;;;2.58;;
64061;SDS011;50308;47.438;-1.528;2024-03-02T10:30:30;4.47;;;1.60;;
64061;SDS011;50308;47.438;-1.528;2024-03-02T10:32:56;3.70;;;1.40;;
64061;SDS011;50308;47.438;-1.528;2024-03-02T10:35:22;3.75;;;1.50;;
64061;SDS011;50308;47.438;-1.528;2024-03-02T10:37:49;2.85;;;1.30;;
64061;SDS011;50308;47.438;-1.528;2024-03-02T10:40:15;2.53;;;2.20;;
64061;SDS011;50308;47.438;-1.528;2024-03-02T10:42:41;3.83;;;1.90;;
64061;SDS011;50308;47.438;-1.528;2024-03-02T10:45:09;4.90;;;2.15;;
64061;SDS011;50308;47.438;-1.528;2024-03-02T10:47:36;2.50;;;1.70;;
64061;SDS011;50308;47.438;-1.528;2024-03-02T10:50:04;3.85;;;1.40;;
64061;SDS011;50308;47.438;-1.528;2024-03-02T10:52:42;5.45;;;1.65;;
64061;SDS011;50308;47.438;-1.528;2024-03-02T10:55:11;2.67;;;1.10;;
64061;SDS011;50308;47.438;-1.528;2024-03-02T10:57:58;8.23;;;4.88;;
64061;SDS011;50308;47.438;-1.528;2024-03-02T11:00:27;5.45;;;3.65;;
64061;SDS011;50308;47.438;-1.528;2024-03-02T11:03:03;5.88;;;2.78;;
64061;SDS011;50308;47.438;-1.528;2024-03-02T11:05:37;5.32;;;2.88;;
64061;SDS011;50308;47.438;-1.528;2024-03-02T11:08:08;3.97;;;2.10;;
64061;SDS011;50308;47.438;-1.528;2024-03-02T11:10:41;2.05;;;1.40;;
64061;SDS011;50308;47.438;-1.528;2024-03-02T11:13:16;3.90;;;1.85;;
64061;SDS011;50308;47.438;-1.528;2024-03-02T11:15:46;5.90;;;1.60;;
64061;SDS011;50308;47.438;-1.528;2024-03-02T11:18:11;3.67;;;1.30;;
64061;SDS011;50308;47.438;-1.528;2024-03-02T11:20:39;3.25;;;1.33;;
64061;SDS011;50308;47.438;-1.528;2024-03-02T11:23:06;2.70;;;1.30;;
64061;SDS011;50308;47.438;-1.528;2024-03-02T11:25:32;3.42;;;2.45;;
64061;SDS011;50308;47.438;-1.528;2024-03-02T11:27:59;3.13;;;1.38;;
64061;SDS011;50308;47.438;-1.528;2024-03-02T11:33:01;3.85;;;1.58;;
64061;SDS011;50308;47.438;-1.528;2024-03-02T11:35:36;4.07;;;1.90;;
64061;SDS011;50308;47.438;-1.528;2024-03-02T11:38:02;5.47;;;1.50;;
64061;SDS011;50308;47.438;-1.528;2024-03-02T11:40:29;3.33;;;2.00;;
64061;SDS011;50308;47.438;-1.528;2024-03-02T11:42:55;5.90;;;1.48;;
64061;SDS011;50308;47.438;-1.528;2024-03-02T11:45:25;3.10;;;1.40;;
64061;SDS011;50308;47.438;-1.528;2024-03-02T11:47:53;3.00;;;1.30;;
64061;SDS011;50308;47.438;-1.528;2024-03-02T11:50:29;5.38;;;1.70;;
64061;SDS011;50308;47.438;-1.528;2024-03-02T11:52:58;4.32;;;1.67;;
64061;SDS011;50308;47.438;-1.528;2024-03-02T11:55:25;5.30;;;2.70;;
64061;SDS011;50308;47.438;-1.528;2024-03-02T11:57:54;4.85;;;1.90;;
64061;SDS011;50308;47.438;-1.528;2024-03-02T12:00:20;4.88;;;1.65;;
64061;SDS011;50308;47.438;-1.528;2024-03-02T12:02:47;4.30;;;1.50;;
64061;SDS011;50308;47.438;-1.528;2024-03-02T12:05:26;4.13;;;1.65;;
64061;SDS011;50308;47.438;-1.528;2024-03-02T12:07:59;4.07;;;1.48;;
64061;SDS011;50308;47.438;-1.528;2024-03-02T12:10:26;5.00;;;1.60;;
64061;SDS011;50308;47.438;-1.528;2024-03-02T12:13:25;3.38;;;1.30;;
64061;SDS011;50308;47.438;-1.528;2024-03-02T12:15:44;4.57;;;2.00;;
64061;SDS011;50308;47.438;-1.528;2024-03-02T12:18:09;3.63;;;1.38;;
64061;SDS011;50308;47.438;-1.528;2024-03-02T12:20:35;2.17;;;1.20;;
64061;SDS011;50308;47.438;-1.528;2024-03-02T12:23:02;2.92;;;1.38;;
64061;SDS011;50308;47.438;-1.528;2024-03-02T12:25:29;4.25;;;1.60;;
64061;SDS011;50308;47.438;-1.528;2024-03-02T12:27:57;3.80;;;1.60;;
64061;SDS011;50308;47.438;-1.528;2024-03-02T12:30:26;5.20;;;1.98;;
64061;SDS011;50308;47.438;-1.528;2024-03-02T12:32:54;3.60;;;1.73;;
64061;SDS011;50308;47.438;-1.528;2024-03-02T12:35:20;2.95;;;1.73;;
64061;SDS011;50308;47.438;-1.528;2024-03-02T12:37:49;4.00;;;1.38;;
64061;SDS011;50308;47.438;-1.528;2024-03-02T12:40:16;4.25;;;1.50;;
64061;SDS011;50308;47.438;-1.528;2024-03-02T12:42:43;2.35;;;1.10;;
64061;SDS011;50308;47.438;-1.528;2024-03-02T12:45:10;2.33;;;1.58;;
64061;SDS011;50308;47.438;-1.528;2024-03-02T12:47:36;3.72;;;1.40;;
64061;SDS011;50308;47.438;-1.528;2024-03-02T12:50:04;4.43;;;1.58;;
64061;SDS011;50308;47.438;-1.528;2024-03-02T12:52:30;4.22;;;1.85;;
64061;SDS011;50308;47.438;-1.528;2024-03-02T12:55:02;6.15;;;1.80;;
64061;SDS011;50308;47.438;-1.528;2024-03-02T12:57:32;2.33;;;1.50;;
64061;SDS011;50308;47.438;-1.528;2024-03-02T12:59:58;2.50;;;1.55;;
64061;SDS011;50308;47.438;-1.528;2024-03-02T13:02:34;2.88;;;1.63;;
64061;SDS011;50308;47.438;-1.528;2024-03-02T13:05:01;3.33;;;1.20;;
64061;SDS011;50308;47.438;-1.528;2024-03-02T13:07:28;4.95;;;1.80;;
64061;SDS011;50308;47.438;-1.528;2024-03-02T13:09:55;2.72;;;1.30;;
64061;SDS011;50308;47.438;-1.528;2024-03-02T13:12:22;2.97;;;1.25;;
64061;SDS011;50308;47.438;-1.528;2024-03-02T13:14:52;3.28;;;1.00;;
64061;SDS011;50308;47.438;-1.528;2024-03-02T13:17:19;3.08;;;1.20;;
64061;SDS011;50308;47.438;-1.528;2024-03-02T13:19:58;3.05;;;1.23;;
64061;SDS011;50308;47.438;-1.528;2024-03-02T13:22:27;3.65;;;1.38;;
64061;SDS011;50308;47.438;-1.528;2024-03-02T13:24:53;3.35;;;1.10;;
64061;SDS011;50308;47.438;-1.528;2024-03-02T13:27:22;6.15;;;2.45;;
64061;SDS011;50308;47.438;-1.528;2024-03-02T13:29:48;5.50;;;2.30;;
64061;SDS011;50308;47.438;-1.528;2024-03-02T13:32:15;4.20;;;1.63;;
64061;SDS011;50308;47.438;-1.528;2024-03-02T13:34:41;3.63;;;1.52;;
64061;SDS011;50308;47.438;-1.528;2024-03-02T13:37:07;2.50;;;1.70;;
64061;SDS011;50308;47.438;-1.528;2024-03-02T13:39:32;3.33;;;1.42;;
64061;SDS011;50308;47.438;-1.528;2024-03-02T13:42:04;5.05;;;1.70;;
64061;SDS011;50308;47.438;-1.528;2024-03-02T13:44:33;6.13;;;1.80;;
64061;SDS011;50308;47.438;-1.528;2024-03-02T13:46:59;3.53;;;1.48;;
64061;SDS011;50308;47.438;-1.528;2024-03-02T13:49:25;2.95;;;1.25;;
64061;SDS011;50308;47.438;-1.528;2024-03-02T13:51:59;4.57;;;2.50;;
64061;SDS011;50308;47.438;-1.528;2024-03-02T13:54:26;7.40;;;4.25;;
64061;SDS011;50308;47.438;-1.528;2024-03-02T13:56:51;7.93;;;3.55;;
64061;SDS011;50308;47.438;-1.528;2024-03-02T13:59:17;6.85;;;4.00;;
64061;SDS011;50308;47.438;-1.528;2024-03-02T14:01:44;6.72;;;3.33;;
64061;SDS011;50308;47.438;-1.528;2024-03-02T14:04:09;4.80;;;3.45;;
64061;SDS011;50308;47.438;-1.528;2024-03-02T14:06:35;9.13;;;4.97;;
64061;SDS011;50308;47.438;-1.528;2024-03-02T14:09:01;11.00;;;5.53;;
64061;SDS011;50308;47.438;-1.528;2024-03-02T14:11:27;8.23;;;5.38;;
64061;SDS011;50308;47.438;-1.528;2024-03-02T14:13:52;8.70;;;4.70;;
64061;SDS011;50308;47.438;-1.528;2024-03-02T14:16:19;7.05;;;4.40;;
64061;SDS011;50308;47.438;-1.528;2024-03-02T14:18:45;7.40;;;4.28;;
64061;SDS011;50308;47.438;-1.528;2024-03-02T14:21:11;7.97;;;4.53;;
64061;SDS011;50308;47.438;-1.528;2024-03-02T14:23:37;5.97;;;2.85;;
64061;SDS011;50308;47.438;-1.528;2024-03-02T14:26:02;5.70;;;3.20;;
64061;SDS011;50308;47.438;-1.528;2024-03-02T14:28:28;4.95;;;2.50;;
64061;SDS011;50308;47.438;-1.528;2024-03-02T14:30:54;3.53;;;1.90;;
64061;SDS011;50308;47.438;-1.528;2024-03-02T14:33:20;4.97;;;2.03;;
64061;SDS011;50308;47.438;-1.528;2024-03-02T14:35:46;4.70;;;2.22;;
64061;SDS011;50308;47.438;-1.528;2024-03-02T14:38:12;5.45;;;2.00;;
64061;SDS011;50308;47.438;-1.528;2024-03-02T14:40:38;4.82;;;1.73;;
64061;SDS011;50308;47.438;-1.528;2024-03-02T14:43:03;4.03;;;1.90;;
64061;SDS011;50308;47.438;-1.528;2024-03-02T14:45:29;3.85;;;1.67;;
64061;SDS011;50308;47.438;-1.528;2024-03-02T14:47:55;3.78;;;2.28;;